Time;durP1;ratioP1;P1;durP2;ratioP2;P2;SDS_P1;SDS_P2;PMS_P1;PMS_P2;Temp;Humidity;BMP_temperature;BMP_pressure;BME280_temperature;BME280_humidity;BME280_pressure;Samples;Min_cycle;Max_cycle;Signal;HPM_P1;HPM_P2
2020/12/31 00:00:07;;;;;;;8.63;7.57;;;3.50;75.40;;;;;;5153003;27;20447;-81
2020/12/31 00:02:34;;;;;;;9.50;7.30;;;3.50;75.70;;;;;;5139243;27;20433;-80
2020/12/31 00:05:05;;;;;;;8.93;7.53;;;3.50;75.90;;;;;;5149749;27;20453;-80
2020/12/31 00:07:31;;;;;;;9.67;8.20;;;3.40;75.70;;;;;;5147000;27;20440;-80
2020/12/31 00:09:59;;;;;;;9.40;8.50;;;3.20;75.90;;;;;;5141869;27;20461;-80
2020/12/31 00:12:26;;;;;;;8.63;7.80;;;3.20;76.50;;;;;;5140962;27;20696;-80
2020/12/31 00:14:53;;;;;;;9.20;8.27;;;3.20;76.30;;;;;;5138081;27;20454;-81
2020/12/31 00:17:19;;;;;;;8.23;7.43;;;3.10;76.50;;;;;;5139818;27;20896;-80
2020/12/31 00:19:46;;;;;;;8.57;7.73;;;3.20;76.50;;;;;;5139431;27;20445;-80
2020/12/31 00:22:12;;;;;;;9.13;8.20;;;3.10;76.70;;;;;;5143674;27;20444;-80
2020/12/31 00:24:41;;;;;;;9.50;8.60;;;3.10;77.00;;;;;;5144531;27;20453;-80
2020/12/31 00:27:07;;;;;;;10.23;8.57;;;3.00;77.30;;;;;;5139980;28;20499;-79
2020/12/31 00:29:35;;;;;;;9.47;8.57;;;3.10;77.50;;;;;;5146667;27;20511;-79
2020/12/31 00:32:03;;;;;;;9.47;8.60;;;3.00;77.20;;;;;;5146983;27;21082;-79
2020/12/31 00:34:29;;;;;;;10.83;7.70;;;3.10;77.50;;;;;;5145080;27;20470;-80
2020/12/31 00:36:56;;;;;;;8.47;7.63;;;3.00;77.70;;;;;;5149447;27;20468;-79
2020/12/31 00:39:22;;;;;;;8.90;8.10;;;3.00;77.40;;;;;;5142076;27;20453;-79
2020/12/31 00:41:49;;;;;;;9.67;7.93;;;3.00;77.40;;;;;;5152783;27;20532;-79
2020/12/31 00:44:15;;;;;;;9.70;8.83;;;3.00;77.90;;;;;;5144093;27;20449;-79
2020/12/31 00:46:43;;;;;;;9.43;8.40;;;3.00;77.80;;;;;;5152623;27;20435;-80
2020/12/31 00:49:11;;;;;;;9.60;8.53;;;2.90;77.90;;;;;;5150206;27;20767;-80
2020/12/31 00:51:37;;;;;;;9.40;8.47;;;2.90;77.80;;;;;;5143088;27;21042;-79
2020/12/31 00:54:04;;;;;;;10.67;9.60;;;2.90;78.10;;;;;;5139382;27;20487;-79
2020/12/31 00:56:31;;;;;;;9.73;8.83;;;2.90;78.30;;;;;;5138261;27;20488;-79
2020/12/31 00:58:57;;;;;;;9.57;8.77;;;2.90;78.50;;;;;;5139379;27;20490;-79
2020/12/31 01:01:23;;;;;;;10.43;9.20;;;2.80;78.80;;;;;;5148129;27;20571;-79
2020/12/31 01:03:50;;;;;;;9.23;8.33;;;2.80;78.90;;;;;;5151032;27;20455;-79
2020/12/31 01:06:17;;;;;;;9.67;8.73;;;2.80;79.00;;;;;;5145716;27;20471;-79
2020/12/31 01:08:47;;;;;;;8.90;8.03;;;2.80;78.90;;;;;;5151497;27;20440;-80
2020/12/31 01:11:14;;;;;;;8.83;7.93;;;2.70;79.30;;;;;;5154652;27;20484;-79
2020/12/31 01:13:41;;;;;;;9.30;8.30;;;2.70;79.20;;;;;;5156751;27;20444;-79
2020/12/31 01:16:09;;;;;;;9.27;8.03;;;2.70;78.50;;;;;;5150953;27;20452;-79
2020/12/31 01:18:37;;;;;;;9.73;8.73;;;2.70;78.80;;;;;;5147735;27;20989;-79
2020/12/31 01:21:08;;;;;;;10.57;9.07;;;2.70;79.00;;;;;;5147002;27;20520;-79
2020/12/31 01:23:35;;;;;;;9.67;8.57;;;2.70;79.50;;;;;;5146670;27;20444;-79
2020/12/31 01:26:06;;;;;;;9.30;8.30;;;2.60;78.60;;;;;;5148046;27;20440;-80
2020/12/31 01:28:41;;;;;;;9.23;8.37;;;2.70;79.50;;;;;;5153185;27;20449;-79
2020/12/31 01:31:08;;;;;;;9.80;8.80;;;2.70;79.60;;;;;;5154301;27;20759;-79
2020/12/31 01:33:37;;;;;;;9.70;8.70;;;2.70;79.00;;;;;;5147694;27;20592;-79
2020/12/31 01:36:07;;;;;;;11.53;9.07;;;2.60;79.20;;;;;;5136767;27;20443;-78
2020/12/31 01:38:35;;;;;;;9.97;9.07;;;2.60;79.70;;;;;;5140233;27;20463;-80
2020/12/31 01:41:04;;;;;;;10.27;9.20;;;2.60;79.50;;;;;;5151089;27;20443;-80
2020/12/31 01:43:33;;;;;;;9.73;8.77;;;2.60;80.00;;;;;;5153712;27;20441;-79
2020/12/31 01:45:59;;;;;;;9.93;8.77;;;2.60;79.60;;;;;;5140679;27;20461;-79
2020/12/31 01:48:26;;;;;;;9.77;8.73;;;2.60;79.30;;;;;;5134192;27;20449;-80
2020/12/31 01:50:53;;;;;;;10.00;9.00;;;2.60;79.40;;;;;;5148854;27;20441;-79
2020/12/31 01:53:21;;;;;;;10.17;9.07;;;2.60;80.00;;;;;;5141681;27;20492;-79
2020/12/31 01:55:51;;;;;;;9.80;8.80;;;2.70;80.10;;;;;;5140557;27;20444;-79
2020/12/31 01:58:17;;;;;;;10.80;9.70;;;2.70;79.90;;;;;;5136975;27;20456;-80
2020/12/31 02:00:44;;;;;;;9.87;8.97;;;2.70;79.60;;;;;;5136183;27;20457;-80
2020/12/31 02:03:15;;;;;;;12.53;9.33;;;2.60;80.30;;;;;;5134989;27;20524;-79
2020/12/31 02:05:41;;;;;;;9.40;8.50;;;2.70;79.90;;;;;;5128458;27;20449;-79
2020/12/31 02:08:07;;;;;;;9.90;9.00;;;2.70;79.50;;;;;;5128996;27;20468;-79
2020/12/31 02:10:34;;;;;;;9.53;8.60;;;2.70;79.40;;;;;;5129931;27;20457;-79
2020/12/31 02:13:01;;;;;;;10.60;9.50;;;2.70;79.50;;;;;;5114014;27;20482;-79
2020/12/31 02:15:28;;;;;;;9.07;8.10;;;2.70;79.10;;;;;;5139769;27;20451;-78
2020/12/31 02:17:55;;;;;;;12.27;9.37;;;2.70;79.20;;;;;;5147106;27;20488;-79
2020/12/31 02:20:21;;;;;;;10.77;9.67;;;2.80;79.10;;;;;;5149705;27;20472;-79
2020/12/31 02:22:48;;;;;;;10.07;9.00;;;2.70;79.30;;;;;;5142023;27;20455;-80
2020/12/31 02:25:17;;;;;;;10.57;9.47;;;2.70;79.00;;;;;;5144174;27;20473;-81
2020/12/31 02:27:45;;;;;;;10.17;9.17;;;2.80;79.00;;;;;;5146682;27;20484;-79
2020/12/31 02:30:11;;;;;;;11.10;9.30;;;2.70;78.70;;;;;;5139593;27;20477;-79
2020/12/31 02:32:38;;;;;;;9.33;8.47;;;2.70;78.80;;;;;;5137483;27;20461;-80
2020/12/31 02:35:04;;;;;;;10.17;9.07;;;2.70;78.80;;;;;;5139372;27;20951;-79
2020/12/31 02:37:31;;;;;;;10.03;9.13;;;2.70;78.90;;;;;;5150190;27;20447;-80
2020/12/31 02:39:58;;;;;;;10.80;9.70;;;2.60;78.90;;;;;;5142751;27;20441;-78
2020/12/31 02:42:25;;;;;;;10.80;9.70;;;2.70;79.40;;;;;;5141980;27;20490;-79
2020/12/31 02:44:51;;;;;;;9.97;9.07;;;2.70;79.30;;;;;;5150258;27;20456;-80
2020/12/31 02:47:18;;;;;;;9.90;8.90;;;2.70;79.00;;;;;;5157584;27;20458;-79
2020/12/31 02:49:44;;;;;;;11.53;9.53;;;2.70;79.20;;;;;;5133038;27;20587;-79
2020/12/31 02:52:11;;;;;;;10.77;9.77;;;2.70;79.60;;;;;;5144861;27;20464;-79
2020/12/31 02:54:37;;;;;;;10.47;9.47;;;2.60;79.10;;;;;;5147086;27;20447;-80
2020/12/31 02:57:04;;;;;;;11.73;10.53;;;2.60;79.50;;;;;;5142643;27;20461;-79
2020/12/31 02:59:31;;;;;;;11.40;10.27;;;2.60;79.50;;;;;;5146684;27;20457;-79
2020/12/31 03:01:57;;;;;;;11.70;9.60;;;2.60;79.70;;;;;;5153698;27;20460;-80
2020/12/31 03:04:23;;;;;;;11.33;10.13;;;2.60;79.60;;;;;;5146865;27;20440;-79
2020/12/31 03:06:50;;;;;;;11.43;10.33;;;2.60;80.00;;;;;;5143016;27;20454;-81
2020/12/31 03:09:16;;;;;;;11.10;9.70;;;2.60;79.80;;;;;;5151730;27;20449;-79
2020/12/31 03:11:45;;;;;;;11.50;10.37;;;2.70;79.80;;;;;;5152311;27;20474;-79
2020/12/31 03:14:12;;;;;;;11.90;10.70;;;2.70;79.80;;;;;;5150848;27;20448;-79
2020/12/31 03:16:38;;;;;;;11.10;10.00;;;2.70;80.00;;;;;;5135530;27;20456;-80
2020/12/31 03:19:05;;;;;;;10.80;9.70;;;2.70;79.60;;;;;;5137476;27;20445;-79
2020/12/31 03:21:31;;;;;;;10.87;9.77;;;2.70;79.50;;;;;;5135361;27;20461;-79
2020/12/31 03:23:58;;;;;;;10.90;9.80;;;2.60;79.40;;;;;;5148193;27;20464;-77
2020/12/31 03:26:24;;;;;;;11.70;10.50;;;2.60;79.50;;;;;;5150552;27;20453;-79
2020/12/31 03:28:54;;;;;;;10.17;9.23;;;2.60;79.50;;;;;;5149847;27;20473;-79
2020/12/31 03:31:24;;;;;;;11.00;10.00;;;2.60;79.50;;;;;;5141420;27;20489;-79
2020/12/31 03:33:51;;;;;;;11.33;9.33;;;2.60;79.90;;;;;;5137076;27;20459;-79
2020/12/31 03:36:17;;;;;;;10.43;9.43;;;2.60;79.60;;;;;;5131192;27;20456;-79
2020/12/31 03:38:43;;;;;;;9.83;8.83;;;2.60;79.70;;;;;;5137776;27;20448;-79
2020/12/31 03:41:10;;;;;;;11.47;10.37;;;2.60;79.80;;;;;;5133078;27;20776;-79
2020/12/31 03:43:36;;;;;;;11.33;10.20;;;2.50;80.00;;;;;;5141625;27;20456;-79
2020/12/31 03:46:03;;;;;;;12.07;10.03;;;2.50;80.20;;;;;;5140287;27;20757;-79
2020/12/31 03:48:30;;;;;;;12.30;11.10;;;2.50;80.10;;;;;;5138221;27;20449;-79
2020/12/31 03:51:04;;;;;;;11.67;10.30;;;2.50;80.20;;;;;;5129301;27;20453;-79
2020/12/31 03:53:30;;;;;;;10.73;9.60;;;2.40;80.50;;;;;;5138619;27;20491;-79
2020/12/31 03:55:57;;;;;;;12.10;10.93;;;2.40;80.40;;;;;;5134703;27;20521;-79
2020/12/31 03:58:23;;;;;;;11.50;10.07;;;2.40;80.40;;;;;;5138685;27;20444;-80
2020/12/31 04:00:52;;;;;;;11.47;10.27;;;2.40;80.60;;;;;;5138313;27;20817;-79
2020/12/31 04:03:18;;;;;;;11.23;10.10;;;2.30;80.60;;;;;;5140420;27;20491;-80
2020/12/31 04:05:46;;;;;;;11.53;10.20;;;2.20;81.00;;;;;;5137306;27;20454;-79
2020/12/31 04:08:12;;;;;;;12.80;11.03;;;2.10;81.30;;;;;;5141453;27;20548;-79
2020/12/31 04:10:38;;;;;;;12.00;10.57;;;1.90;81.80;;;;;;5149925;27;20445;-79
2020/12/31 04:13:05;;;;;;;13.43;11.93;;;1.80;83.40;;;;;;5143998;27;21027;-78
2020/12/31 04:15:31;;;;;;;12.53;11.23;;;1.70;84.80;;;;;;5137674;27;20455;-79
2020/12/31 04:17:58;;;;;;;13.77;11.07;;;1.70;85.50;;;;;;5147356;27;20469;-80
2020/12/31 04:20:26;;;;;;;13.03;11.20;;;1.50;86.70;;;;;;5142791;27;20441;-78
2020/12/31 04:22:53;;;;;;;14.30;12.30;;;1.40;87.90;;;;;;5138111;27;20460;-79
2020/12/31 04:25:19;;;;;;;12.97;11.57;;;1.30;89.30;;;;;;5138435;27;20518;-82
2020/12/31 04:27:46;;;;;;;15.43;12.13;;;1.20;89.70;;;;;;5150305;27;20446;-79
2020/12/31 04:30:15;;;;;;;14.00;12.33;;;1.10;90.90;;;;;;5146036;27;20450;-79
2020/12/31 04:32:41;;;;;;;14.60;12.67;;;0.90;91.50;;;;;;5151238;27;20505;-79
2020/12/31 04:35:08;;;;;;;14.57;13.00;;;0.80;91.80;;;;;;5142002;27;20486;-80
2020/12/31 04:37:37;;;;;;;14.77;13.17;;;0.80;93.20;;;;;;5144827;27;20451;-79
2020/12/31 04:40:05;;;;;;;14.87;13.00;;;0.70;94.60;;;;;;5128257;27;21012;-79
2020/12/31 04:42:35;;;;;;;17.10;14.17;;;0.60;96.10;;;;;;5143990;28;20735;-79
2020/12/31 04:45:03;;;;;;;15.83;13.93;;;0.60;97.50;;;;;;5130144;27;20511;-79
2020/12/31 04:47:35;;;;;;;20.10;15.30;;;0.60;99.60;;;;;;5133142;27;20526;-79
2020/12/31 04:50:04;;;;;;;21.77;16.13;;;0.50;99.80;;;;;;5137349;27;20857;-79
2020/12/31 04:52:33;;;;;;;21.73;15.80;;;0.40;99.80;;;;;;5132181;27;20533;-79
2020/12/31 04:55:01;;;;;;;21.37;15.80;;;0.40;99.90;;;;;;5130208;27;20457;-79
2020/12/31 04:57:31;;;;;;;21.27;16.53;;;0.30;99.90;;;;;;5116553;27;20532;-82
2020/12/31 04:59:59;;;;;;;17.90;15.20;;;0.30;99.90;;;;;;5140908;27;20504;-83
2020/12/31 05:02:26;;;;;;;20.53;16.43;;;0.30;99.90;;;;;;5131495;28;20477;-81
2020/12/31 05:04:56;;;;;;;19.93;16.07;;;0.20;99.90;;;;;;5127678;28;20511;-82
2020/12/31 05:07:27;;;;;;;23.20;17.07;;;0.20;99.90;;;;;;5141141;27;20913;-82
2020/12/31 05:10:09;;;;;;;21.80;16.67;;;0.20;99.90;;;;;;5142375;27;20444;-83
2020/12/31 05:12:37;;;;;;;21.27;16.70;;;0.20;99.90;;;;;;5145951;27;20461;-82
2020/12/31 05:15:03;;;;;;;23.67;17.60;;;0.20;99.90;;;;;;5128655;27;20479;-82
2020/12/31 05:17:35;;;;;;;21.57;18.03;;;0.20;99.90;;;;;;5152748;27;20518;-83
2020/12/31 05:20:14;;;;;;;24.20;18.47;;;0.20;99.90;;;;;;5134851;27;20448;-83
2020/12/31 05:22:42;;;;;;;23.40;18.03;;;0.30;99.90;;;;;;5159047;27;20449;-83
2020/12/31 05:25:09;;;;;;;25.17;18.87;;;0.50;99.90;;;;;;5155827;27;20437;-83
2020/12/31 05:27:41;;;;;;;23.03;18.17;;;0.50;99.90;;;;;;5158681;27;20444;-82
2020/12/31 05:30:09;;;;;;;23.90;17.97;;;0.60;99.90;;;;;;5152425;27;20444;-84
2020/12/31 05:32:39;;;;;;;23.70;17.10;;;0.70;99.90;;;;;;5141949;28;20473;-83
2020/12/31 05:35:11;;;;;;;22.60;17.60;;;0.80;99.90;;;;;;5137968;27;20512;-83
2020/12/31 05:37:37;;;;;;;24.30;18.30;;;0.90;99.90;;;;;;5142909;27;20982;-83
2020/12/31 05:40:07;;;;;;;23.30;17.87;;;1.00;99.90;;;;;;5154478;27;20446;-82
2020/12/31 05:42:37;;;;;;;20.87;16.40;;;1.10;99.60;;;;;;5132521;27;20537;-83
2020/12/31 05:45:13;;;;;;;22.00;17.53;;;1.10;97.40;;;;;;5153382;27;20443;-82
2020/12/31 05:47:48;;;;;;;21.77;16.63;;;1.20;96.40;;;;;;5150712;27;20512;-82
2020/12/31 05:50:24;;;;;;;23.40;17.80;;;1.30;95.00;;;;;;5153561;27;20451;-83
2020/12/31 05:52:53;;;;;;;21.80;17.03;;;1.30;94.10;;;;;;5152641;27;20491;-83
2020/12/31 05:55:21;;;;;;;19.90;16.30;;;1.40;93.10;;;;;;5156130;27;20450;-82
2020/12/31 05:57:51;;;;;;;20.27;17.07;;;1.40;92.50;;;;;;5143631;27;20478;-83
2020/12/31 06:00:20;;;;;;;20.27;17.00;;;1.50;92.10;;;;;;5148403;27;20457;-83
2020/12/31 06:02:54;;;;;;;19.93;16.03;;;1.50;92.00;;;;;;5131949;27;20446;-82
2020/12/31 06:05:21;;;;;;;18.13;15.17;;;1.50;91.60;;;;;;5152632;27;20472;-84
2020/12/31 06:07:49;;;;;;;21.27;15.80;;;1.50;91.50;;;;;;5135108;27;20471;-82
2020/12/31 06:10:26;;;;;;;20.43;15.53;;;1.60;91.30;;;;;;5153867;27;20432;-83
2020/12/31 06:12:59;;;;;;;18.87;15.10;;;1.50;90.90;;;;;;5145461;27;20475;-82
2020/12/31 06:15:28;;;;;;;18.27;14.93;;;1.60;90.70;;;;;;5152322;27;20460;-82
2020/12/31 06:17:55;;;;;;;17.97;14.63;;;1.60;90.80;;;;;;5152123;27;20447;-83
2020/12/31 06:20:24;;;;;;;16.73;14.40;;;1.40;90.30;;;;;;5134041;27;20460;-82
2020/12/31 06:23:12;;;;;;;17.10;14.23;;;1.60;90.20;;;;;;5137665;27;20460;-82
2020/12/31 06:25:44;;;;;;;18.00;15.30;;;1.60;90.20;;;;;;5130111;27;20475;-83
2020/12/31 06:28:16;;;;;;;19.03;13.53;;;1.60;89.70;;;;;;5145551;27;20455;-83
2020/12/31 06:30:45;;;;;;;19.53;14.43;;;1.60;89.80;;;;;;5157346;27;20454;-83
2020/12/31 06:33:21;;;;;;;19.23;15.13;;;1.60;89.40;;;;;;5151877;27;20549;-83
2020/12/31 06:35:53;;;;;;;15.77;14.10;;;1.60;89.50;;;;;;5143448;27;20459;-83
2020/12/31 06:38:31;;;;;;;15.77;13.40;;;1.60;89.30;;;;;;5152583;27;20468;-83
2020/12/31 06:40:58;;;;;;;16.37;13.87;;;1.60;89.00;;;;;;5136359;27;20512;-82
2020/12/31 06:43:32;;;;;;;18.27;13.90;;;1.60;89.30;;;;;;5153397;27;20537;-82
2020/12/31 06:45:59;;;;;;;14.50;12.40;;;1.50;89.50;;;;;;5158919;27;20469;-83
2020/12/31 06:48:39;;;;;;;17.13;14.00;;;1.50;89.50;;;;;;5159266;27;21062;-81
2020/12/31 06:51:10;;;;;;;20.40;14.67;;;1.50;89.60;;;;;;5141083;27;20452;-82
2020/12/31 06:53:39;;;;;;;15.53;13.73;;;1.50;89.70;;;;;;5152187;27;21006;-82
2020/12/31 06:56:08;;;;;;;19.90;13.77;;;1.50;89.90;;;;;;5153562;27;20452;-81
2020/12/31 06:58:40;;;;;;;20.00;13.10;;;1.50;90.00;;;;;;5152592;27;20448;-82
2020/12/31 07:01:26;;;;;;;17.90;13.90;;;1.50;90.00;;;;;;5156628;27;20545;-82
2020/12/31 07:03:55;;;;;;;16.60;13.90;;;1.50;90.00;;;;;;5150938;27;20449;-84
2020/12/31 07:06:32;;;;;;;15.23;13.53;;;1.50;89.70;;;;;;5153162;27;20443;-83
2020/12/31 07:09:06;;;;;;;17.87;14.90;;;1.50;89.80;;;;;;5150805;27;20462;-83
2020/12/31 07:11:39;;;;;;;17.13;13.77;;;1.60;90.00;;;;;;5154370;27;20453;-82
2020/12/31 07:14:31;;;;;;;18.40;14.30;;;1.50;89.60;;;;;;5152683;27;20446;-84
2020/12/31 07:17:05;;;;;;;19.10;14.53;;;1.50;89.10;;;;;;5124814;27;20445;-81
2020/12/31 07:19:38;;;;;;;21.50;14.50;;;1.50;88.80;;;;;;5157712;27;20449;-82
2020/12/31 07:22:15;;;;;;;15.70;14.00;;;1.40;88.60;;;;;;5148448;27;20447;-82
2020/12/31 07:24:54;;;;;;;18.90;15.57;;;1.40;88.30;;;;;;5131674;27;20503;-82
2020/12/31 07:27:36;;;;;;;19.10;14.87;;;1.30;88.80;;;;;;5143840;27;20481;-82
2020/12/31 07:30:21;;;;;;;19.50;15.50;;;1.30;88.90;;;;;;5130047;27;20480;-83
2020/12/31 07:32:49;;;;;;;19.33;16.03;;;1.20;89.30;;;;;;5148645;27;20467;-82
2020/12/31 07:35:23;;;;;;;20.57;16.07;;;1.20;88.70;;;;;;5156506;27;20464;-83
2020/12/31 07:37:54;;;;;;;21.80;16.67;;;1.10;89.00;;;;;;5136648;27;20460;-83
2020/12/31 07:40:31;;;;;;;17.53;14.73;;;1.10;89.20;;;;;;5137161;27;20436;-82
2020/12/31 07:42:58;;;;;;;20.17;15.97;;;1.10;88.80;;;;;;5148269;27;20538;-81
2020/12/31 07:45:31;;;;;;;19.53;15.77;;;1.10;88.40;;;;;;5148018;27;20435;-82
2020/12/31 07:47:59;;;;;;;19.30;15.70;;;1.10;88.00;;;;;;5144220;27;21092;-82
2020/12/31 07:50:28;;;;;;;18.57;14.37;;;1.00;88.10;;;;;;5144543;27;20466;-82
2020/12/31 07:52:55;;;;;;;20.70;15.27;;;1.00;88.30;;;;;;5144340;27;20478;-82
2020/12/31 07:55:22;;;;;;;18.83;15.30;;;1.00;87.90;;;;;;5147792;27;20467;-83
2020/12/31 07:57:54;;;;;;;19.97;14.90;;;1.00;87.70;;;;;;5152195;27;20441;-83
2020/12/31 08:00:22;;;;;;;18.70;15.50;;;1.00;87.60;;;;;;5155696;27;20441;-82
2020/12/31 08:02:52;;;;;;;24.30;16.80;;;1.00;87.00;;;;;;5142252;27;20889;-82
2020/12/31 08:05:20;;;;;;;19.50;15.67;;;1.00;87.10;;;;;;5156737;27;20438;-82
2020/12/31 08:07:51;;;;;;;18.20;13.60;;;1.00;87.60;;;;;;5147745;27;20443;-83
2020/12/31 08:10:22;;;;;;;17.23;13.80;;;1.00;86.50;;;;;;5163042;27;20808;-83
2020/12/31 08:12:54;;;;;;;18.57;14.30;;;1.00;85.60;;;;;;5138745;27;20478;-83
2020/12/31 08:15:23;;;;;;;17.10;13.27;;;1.00;85.10;;;;;;5147067;27;20478;-83
2020/12/31 08:17:52;;;;;;;20.03;14.77;;;1.00;85.00;;;;;;5145525;27;20449;-83
2020/12/31 08:20:20;;;;;;;19.53;15.30;;;1.00;84.50;;;;;;5149878;27;20519;-82
2020/12/31 08:22:52;;;;;;;18.60;13.67;;;1.00;83.50;;;;;;5136756;27;22306;-81
2020/12/31 08:25:25;;;;;;;19.27;15.03;;;1.10;83.10;;;;;;5127250;27;20470;-82
2020/12/31 08:27:55;;;;;;;17.20;14.20;;;1.10;82.70;;;;;;5142323;27;20678;-82
2020/12/31 08:30:22;;;;;;;15.40;13.00;;;1.20;82.40;;;;;;5143987;27;20443;-83
2020/12/31 08:32:57;;;;;;;14.40;11.80;;;1.30;81.70;;;;;;5127064;27;20874;-82
2020/12/31 08:35:26;;;;;;;16.07;12.00;;;1.40;80.80;;;;;;5143290;28;20469;-82
2020/12/31 08:38:05;;;;;;;15.47;12.53;;;1.40;79.70;;;;;;5126195;27;20439;-82
2020/12/31 08:40:33;;;;;;;17.50;13.53;;;1.50;79.70;;;;;;5128328;27;20507;-82
2020/12/31 08:43:00;;;;;;;15.40;12.73;;;1.50;78.60;;;;;;5145314;27;20834;-83
2020/12/31 08:45:32;;;;;;;13.30;12.00;;;1.50;78.10;;;;;;5143466;27;20809;-82
2020/12/31 08:48:18;;;;;;;14.83;12.87;;;1.50;77.90;;;;;;5147775;27;20509;-83
2020/12/31 08:51:02;;;;;;;14.80;12.30;;;1.60;78.00;;;;;;5141198;27;20471;-79
2020/12/31 08:53:30;;;;;;;14.20;11.63;;;1.50;77.70;;;;;;5142453;27;20496;-79
2020/12/31 08:55:56;;;;;;;14.87;12.50;;;1.60;77.70;;;;;;5122591;27;20454;-79
2020/12/31 08:58:28;;;;;;;14.80;11.60;;;1.70;78.00;;;;;;5136003;27;20450;-79
2020/12/31 09:00:55;;;;;;;12.83;11.43;;;1.60;77.60;;;;;;5139000;27;20456;-79
2020/12/31 09:03:24;;;;;;;14.97;11.77;;;1.70;77.20;;;;;;5138916;28;20975;-79
2020/12/31 09:06:00;;;;;;;17.87;11.67;;;1.90;76.90;;;;;;5135977;27;20481;-79
2020/12/31 09:08:31;;;;;;;15.97;11.90;;;2.00;75.90;;;;;;5129003;27;20887;-78
2020/12/31 09:11:02;;;;;;;12.63;10.97;;;2.10;75.60;;;;;;5143210;27;20445;-79
2020/12/31 09:13:34;;;;;;;12.47;10.60;;;2.20;74.80;;;;;;5141749;27;20458;-79
2020/12/31 09:16:08;;;;;;;13.60;11.17;;;2.40;74.50;;;;;;5142952;27;20452;-80
2020/12/31 09:18:36;;;;;;;12.50;10.07;;;2.40;73.90;;;;;;5141372;27;20546;-80
2020/12/31 09:21:02;;;;;;;12.90;10.40;;;2.50;73.70;;;;;;5146441;27;20425;-79
2020/12/31 09:23:29;;;;;;;13.40;10.60;;;2.50;73.40;;;;;;5153122;27;20451;-77
2020/12/31 09:25:56;;;;;;;10.90;9.70;;;2.40;73.00;;;;;;5136058;27;20459;-78
2020/12/31 09:28:24;;;;;;;11.00;9.90;;;2.50;73.00;;;;;;5146392;27;20514;-78
2020/12/31 09:30:51;;;;;;;10.53;9.50;;;2.60;72.60;;;;;;5136570;27;21044;-79
2020/12/31 09:33:19;;;;;;;9.27;8.27;;;2.80;72.40;;;;;;5140353;27;20866;-79
2020/12/31 09:35:46;;;;;;;10.27;9.17;;;2.90;72.30;;;;;;5145692;27;20457;-79
2020/12/31 09:38:15;;;;;;;10.37;9.27;;;2.90;71.90;;;;;;5144949;27;20451;-79
2020/12/31 09:40:41;;;;;;;10.50;8.87;;;2.90;71.40;;;;;;5129638;27;20512;-79
2020/12/31 09:43:08;;;;;;;10.33;8.10;;;3.00;71.30;;;;;;5138954;27;20436;-79
2020/12/31 09:45:35;;;;;;;9.47;8.37;;;3.10;71.10;;;;;;5137017;27;21243;-78
2020/12/31 09:48:02;;;;;;;10.73;8.10;;;3.10;70.80;;;;;;5142682;27;20510;-78
2020/12/31 09:50:32;;;;;;;8.87;7.83;;;3.10;70.80;;;;;;5134752;27;20989;-78
2020/12/31 09:53:01;;;;;;;9.47;8.47;;;3.10;70.50;;;;;;5137985;27;20461;-79
2020/12/31 09:55:27;;;;;;;9.23;8.13;;;3.10;70.10;;;;;;5135969;27;20428;-78
2020/12/31 09:57:54;;;;;;;9.30;8.37;;;3.10;70.20;;;;;;5114840;27;20447;-78
2020/12/31 10:00:20;;;;;;;11.70;9.20;;;3.20;69.90;;;;;;5124851;27;20906;-79
2020/12/31 10:02:48;;;;;;;9.70;8.33;;;3.20;70.10;;;;;;5132872;27;20436;-77
2020/12/31 10:05:14;;;;;;;8.83;7.93;;;3.10;69.80;;;;;;5130346;27;20520;-79
2020/12/31 10:07:42;;;;;;;9.53;7.77;;;3.20;69.70;;;;;;5134291;27;20451;-79
2020/12/31 10:10:09;;;;;;;9.00;7.63;;;3.30;69.60;;;;;;5142575;27;20499;-79
2020/12/31 10:12:36;;;;;;;9.23;8.33;;;3.40;69.20;;;;;;5139622;27;20469;-80
2020/12/31 10:15:02;;;;;;;10.30;8.03;;;3.40;68.80;;;;;;5131999;27;20447;-80
2020/12/31 10:17:29;;;;;;;7.60;6.80;;;3.40;68.80;;;;;;5144861;27;20435;-79
2020/12/31 10:19:57;;;;;;;8.20;7.50;;;3.50;68.90;;;;;;5141797;27;20461;-78
2020/12/31 10:22:24;;;;;;;8.53;7.63;;;3.60;68.30;;;;;;5139378;27;20454;-78
2020/12/31 10:24:51;;;;;;;7.00;6.30;;;3.70;68.50;;;;;;5132426;27;21288;-78
2020/12/31 10:27:20;;;;;;;7.60;6.83;;;3.70;67.80;;;;;;5132082;27;20453;-79
2020/12/31 10:29:47;;;;;;;7.10;6.47;;;3.70;67.70;;;;;;5134927;27;20447;-79
2020/12/31 10:32:16;;;;;;;6.63;6.03;;;3.80;67.10;;;;;;5134249;27;20476;-80
2020/12/31 10:34:46;;;;;;;8.60;6.63;;;3.90;67.00;;;;;;5138587;27;21028;-78
2020/12/31 10:37:13;;;;;;;6.33;5.67;;;4.00;66.30;;;;;;5137528;27;20548;-81
2020/12/31 10:39:41;;;;;;;6.60;5.90;;;4.10;66.20;;;;;;5134380;27;21198;-79
2020/12/31 10:42:08;;;;;;;6.77;6.17;;;4.10;65.40;;;;;;5140060;27;20445;-79
2020/12/31 10:44:35;;;;;;;7.17;6.23;;;4.20;66.40;;;;;;5142276;27;20448;-79
2020/12/31 10:47:06;;;;;;;7.60;5.83;;;4.30;65.70;;;;;;5136695;27;20460;-79
2020/12/31 10:49:32;;;;;;;6.60;6.00;;;4.20;64.50;;;;;;5137337;27;20472;-79
2020/12/31 10:51:59;;;;;;;5.23;4.73;;;4.30;64.50;;;;;;5137016;27;20852;-78
2020/12/31 10:54:28;;;;;;;5.60;5.00;;;4.30;63.80;;;;;;5148344;27;20441;-80
2020/12/31 10:56:56;;;;;;;6.40;5.80;;;4.30;63.40;;;;;;5134721;27;20453;-81
2020/12/31 10:59:23;;;;;;;5.03;4.63;;;4.40;63.30;;;;;;5140368;27;20494;-78
2020/12/31 11:01:52;;;;;;;8.03;4.50;;;4.40;62.90;;;;;;5137943;27;20501;-79
2020/12/31 11:04:19;;;;;;;7.70;4.20;;;4.40;62.50;;;;;;5141317;27;21107;-79
2020/12/31 11:06:45;;;;;;;7.30;5.97;;;4.40;62.60;;;;;;5133804;27;20756;-79
2020/12/31 11:09:12;;;;;;;7.90;6.13;;;4.50;62.30;;;;;;5144916;27;21317;-78
2020/12/31 11:11:42;;;;;;;6.70;6.00;;;4.50;62.60;;;;;;5144916;27;20446;-78
2020/12/31 11:14:09;;;;;;;6.47;5.50;;;4.60;62.10;;;;;;5146773;27;20479;-79
2020/12/31 11:16:36;;;;;;;5.70;5.03;;;4.60;61.70;;;;;;5142768;27;20461;-80
2020/12/31 11:19:04;;;;;;;7.10;4.40;;;4.50;60.90;;;;;;5137728;27;20447;-79
2020/12/31 11:21:30;;;;;;;10.43;4.63;;;4.40;60.30;;;;;;5139014;27;20453;-79
2020/12/31 11:23:57;;;;;;;5.70;5.10;;;4.40;60.40;;;;;;5146806;27;20461;-79
2020/12/31 11:26:24;;;;;;;4.73;4.33;;;4.40;60.60;;;;;;5148407;27;20448;-79
2020/12/31 11:28:51;;;;;;;6.77;5.13;;;4.40;60.40;;;;;;5143867;27;20524;-79
2020/12/31 11:31:26;;;;;;;6.30;5.30;;;4.50;60.50;;;;;;5139924;27;21233;-78
2020/12/31 11:33:53;;;;;;;7.63;5.87;;;4.60;60.50;;;;;;5142336;27;20488;-79
2020/12/31 11:36:21;;;;;;;5.50;5.00;;;4.60;60.60;;;;;;5145907;27;20446;-79
2020/12/31 11:38:47;;;;;;;6.03;5.00;;;4.70;60.20;;;;;;5143511;27;20450;-79
2020/12/31 11:41:14;;;;;;;4.77;4.37;;;4.70;60.30;;;;;;5164636;27;20470;-79
2020/12/31 11:43:41;;;;;;;6.20;4.80;;;4.60;59.60;;;;;;5145938;27;20443;-80
2020/12/31 11:46:08;;;;;;;4.50;4.07;;;4.60;59.40;;;;;;5147075;27;20521;-81
2020/12/31 11:48:35;;;;;;;6.60;5.87;;;4.60;59.30;;;;;;5138551;27;20472;-79
2020/12/31 11:51:03;;;;;;;7.40;5.60;;;4.70;59.30;;;;;;5138328;27;20444;-79
2020/12/31 11:53:34;;;;;;;5.03;4.10;;;4.80;60.30;;;;;;5130673;27;20468;-80
2020/12/31 11:56:01;;;;;;;4.50;3.43;;;4.90;58.00;;;;;;5139685;27;20805;-78
2020/12/31 11:58:28;;;;;;;5.43;4.37;;;5.00;57.50;;;;;;5121533;27;20495;-80
2020/12/31 12:00:56;;;;;;;5.70;4.30;;;5.10;57.10;;;;;;5142911;27;20441;-79
2020/12/31 12:03:24;;;;;;;5.30;4.13;;;5.40;56.80;;;;;;5107037;27;20582;-80
2020/12/31 12:05:50;;;;;;;4.23;3.60;;;5.30;56.30;;;;;;5121854;27;20603;-80
2020/12/31 12:08:17;;;;;;;4.67;4.17;;;5.20;56.00;;;;;;5142813;27;20446;-80
2020/12/31 12:10:47;;;;;;;4.27;3.87;;;5.20;55.60;;;;;;5123763;27;20461;-81
2020/12/31 12:13:17;;;;;;;9.40;4.23;;;5.20;55.50;;;;;;5140996;27;20891;-79
2020/12/31 12:15:43;;;;;;;9.80;4.20;;;5.20;55.40;;;;;;5139953;27;20561;-79
2020/12/31 12:18:10;;;;;;;6.43;3.47;;;5.30;55.60;;;;;;5144093;27;20441;-80
2020/12/31 12:20:39;;;;;;;8.40;4.00;;;5.30;55.20;;;;;;5142957;27;20453;-79
2020/12/31 12:23:05;;;;;;;5.63;4.03;;;5.30;55.10;;;;;;5147006;27;20520;-81
2020/12/31 12:25:31;;;;;;;4.50;4.10;;;5.30;54.80;;;;;;5158078;27;20517;-81
2020/12/31 12:28:02;;;;;;;7.80;3.50;;;5.30;54.80;;;;;;5174544;27;20433;-83
2020/12/31 12:30:29;;;;;;;4.70;3.63;;;5.20;54.70;;;;;;5138796;27;20529;-80
2020/12/31 12:32:55;;;;;;;4.20;3.77;;;5.20;54.70;;;;;;5122395;28;20458;-79
2020/12/31 12:35:22;;;;;;;6.13;3.70;;;5.20;55.20;;;;;;5137913;27;20483;-79
2020/12/31 12:37:49;;;;;;;4.50;3.67;;;5.10;55.00;;;;;;5145414;27;20443;-80
2020/12/31 12:40:16;;;;;;;3.83;3.53;;;5.10;55.10;;;;;;5143700;27;20453;-80
2020/12/31 12:42:44;;;;;;;4.23;3.37;;;5.10;55.10;;;;;;5149805;27;20988;-78
2020/12/31 12:45:13;;;;;;;4.20;3.80;;;5.10;54.90;;;;;;5153225;27;20512;-79
2020/12/31 12:47:41;;;;;;;4.10;3.53;;;5.10;55.20;;;;;;5145175;27;20444;-79
2020/12/31 12:50:11;;;;;;;4.77;3.53;;;5.10;54.80;;;;;;5141760;27;20927;-80
2020/12/31 12:52:39;;;;;;;6.03;3.43;;;5.10;54.80;;;;;;5145130;27;20479;-79